Home > Products > Valid Products > TAF

000
FTUS46 KEKA 230500
TAFUKI
TAF
KUKI 230538Z 2306/2406 00000KT P6SM SKC
     FM231800 VRB04KT P6SM SKC
     FM232100 28010KT P6SM SKC
     FM240200 36005KT P6SM SKC
     FM240400 00000KT P6SM SKC=



000
FTUS46 KEKA 230500
TAFACV
TAF
KACV 230538Z 2306/2406 VRB04KT P6SM OVC007
     FM230800 00000KT 5SM BR OVC004
     FM231200 VRB03KT 1SM BR OVC003
     FM231800 30009KT 6SM BR SCT004
     FM240400 18003KT P6SM BKN007 OVC010=



000
FTUS46 KEKA 230500
TAFCEC
TAF
KCEC 230538Z 2306/2406 16007KT 6SM BR SKC
     FM231100 VRB04KT 2SM BR BKN003
     FM231600 31008KT 6SM BR FEW003
     FM232200 33012G18KT P6SM SKC
     FM240400 34011KT P6SM SKC=



000
FTUS46 KEKA 230400 AAA
TAFCEC
TAF AMD
KCEC 230413Z 2304/2324 VRB05KT 6SM BR SKC
     FM231000 VRB04KT 2SM BR BKN003
     FM231700 33008KT 6SM BR FEW003
     FM232200 33012G18KT P6SM SKC=



000
FTUS46 KEKA 230400 AAA
TAFACV
TAF AMD
KACV 230404Z 2304/2324 16003KT P6SM BKN007 OVC010
     FM230700 00000KT 5SM BR OVC004
     FM231000 VRB03KT 1SM BR OVC003
     FM231800 30009KT 6SM BR SCT004=



000
FTUS46 KEKA 230400 AAA
TAFACV
TAF AMD
KACV 230404Z 2304/2324 16003KT P6SM BKN007 OVC010
     FM230700 00000KT 5SM BR OVC004
     FM231000 VRB03KT 1SM BR OVC003
     FM231800 30009KT 6SM BR SCT004=



000
FTUS46 KEKA 222300 RRA
TAFUKI
TAF
KUKI 222342Z 2300/2324 30010KT P6SM SKC
     FM230100 32008KT P6SM SKC
     FM230300 36005KT P6SM SKC
     FM230500 00000KT P6SM SKC=



000
FTUS46 KEKA 222300 RRA
TAFACV
TAF
KACV 222342Z 2300/2324 32012KT P6SM FEW250
     FM230400 16003KT P6SM OVC004
     FM230900 VRB03KT 1SM BR OVC003
     FM231800 30009KT 6SM BR SCT004=



000
FTUS46 KEKA 222300 RRA
TAFCEC
TAF
KCEC 222342Z 2300/2324 34012G18KT P6SM SKC
     FM230500 35008KT 6SM BR SKC
     FM231000 VRB04KT 2SM BR BKN003
     FM231700 33008KT 6SM BR FEW003
     FM232200 33012G18KT P6SM SKC=



000
FTUS46 KEKA 222100 CCA
TAFACV
TAF COR
KACV 222153Z 2220/2318 31008KT P6SM FEW250
     FM222300 32010KT P6SM FEW250
     FM230400 16003KT P6SM OVC007
     FM230900 VRB03KT 4SM BR OVC003=



000
FTUS46 KEKA 222100 CCA
TAFUKI
TAF COR
KUKI 222121Z 2220/2318 30010KT P6SM SKC
     FM230100 32008KT P6SM SKC
     FM230300 36005KT P6SM SKC
     FM230600 00000KT P6SM SKC=



000
FTUS46 KEKA 222100 AAC
TAFCEC
TAF AMD
KCEC 222119Z 2221/2318 32010KT P6SM SKC
     FM230000 33012G18KT P6SM SKC
     FM230500 33005KT 5SM BR OVC009
     FM230900 VRB03KT 2SM BR OVC005=



000
FTUS46 KEKA 222000 AAA
TAFUKI
TAF AMD
KUKI 222019Z 2220/2318 34010G15KT P6SM SKC
     FM222300 32008KT P6SM SKC
     FM230100 36005KT P6SM SKC
     FM230400 00000KT P6SM SKC=



000
FTUS46 KEKA 222000 AAB
TAFACV
TAF AMD
KACV 222018Z 2220/2318 30008KT P6SM OVC004
      TEMPO 2220/2223 2SM BR OVC002
     FM222300 32010KT P6SM OVC005
     FM230400 16003KT P6SM OVC007
     FM230900 VRB03KT 4SM BR OVC003=



000
FTUS46 KEKA 221900 AAB
TAFCEC
TAF AMD
KCEC 221912Z 2219/2318 28006KT P6SM SCT004
     FM222100 32012KT P6SM BKN008
     FM230000 33012G20KT P6SM SKC
     FM230500 33005KT 5SM BR SCT002 OVC009
     FM230900 VRB03KT 2SM BR OVC002=



000
FTUS46 KEKA 221900 AAA
TAFACV
TAF AMD
KACV 221911Z 2219/2318 30008KT P6SM OVC004
     FM222000 30008KT P6SM BKN015
     FM222300 32010KT P6SM FEW250
     FM230400 16003KT P6SM OVC007
     FM230900 VRB03KT 4SM BR OVC003=



000
FTUS46 KEKA 221800 AAA
TAFCEC
TAF AMD
KCEC 221835Z 2219/2318 29006KT P6SM BKN004
     FM222100 32012KT P6SM BKN008
     FM230000 33012G20KT P6SM SKC
     FM230500 33005KT 5SM BR SCT002 OVC009
     FM230900 VRB03KT 2SM BR OVC002=



000
FTUS46 KEKA 221700
TAFCEC
TAF
KCEC 221723Z 2218/2318 29006KT P6SM OVC007
     FM222100 32012KT P6SM BKN008
     FM230000 33012G20KT P6SM SKC
     FM230500 33005KT 5SM BR SCT002 OVC009
     FM230900 VRB03KT 2SM BR OVC002=



000
FTUS46 KEKA 221700
TAFUKI
TAF
KUKI 221723Z 2218/2318 00000KT P6SM SKC
     FM222000 VRB06KT P6SM SKC
     FM222300 29008KT P6SM SKC
     FM230100 36005KT P6SM SKC
     FM230400 00000KT P6SM SKC=



000
FTUS46 KEKA 221700
TAFACV
TAF
KACV 221723Z 2218/2318 30004KT 3SM BR OVC003
     FM221900 30008KT P6SM BKN015
     FM222300 32010KT P6SM FEW250
     FM230400 16003KT P6SM OVC007
     FM230900 VRB03KT 4SM BR OVC003=



000
FTUS46 KEKA 221600 AAC
TAFACV
TAF AMD
KACV 221615Z 2216/2312 00000KT P6SM BKN004 OVC013
     FM221800 30010KT P6SM BKN015
     FM222300 32012KT P6SM SCT007
     FM230400 16003KT 4SM BR OVC008=



000
FTUS46 KEKA 221500 CCA
TAFCEC
TAF COR
KCEC 221523Z 2215/2312 VRB03KT P6SM BKN010
     FM221800 30007KT P6SM FEW250
     FM222100 32012KT P6SM SCT006
     FM230000 33014G22KT P6SM SKC
     FM230400 35008KT P6SM SCT002=



000
FTUS46 KEKA 221500 AAB
TAFACV
TAF AMD
KACV 221517Z 2215/2312 00000KT P6SM SCT020 BKN030 OVC040
     FM221800 30010KT P6SM SCT030
     FM222300 32012KT P6SM SCT007
     FM230400 16003KT 4SM BR OVC008=



000
FTUS46 KEKA 221500 AAB
TAFCEC
TAF AMD
KCEC 221515Z 2215/2312 VRB03KT P6SM SCT010
     FM221800 30007KT P6SM FEW250
     FM222100 32012KT P6SM SCT006
     FM230000 33014G22KT P6SM SKC
     FM230400 35008KT P6SM SCT002=



000
FTUS46 KEKA 221400 AAA
TAFACV
TAF AMD
KACV 221429Z 2214/2312 00000KT P6SM BKN010 OVC017
     FM221800 30010KT 6SM BR BKN007
     FM222300 32012KT P6SM SCT007
     FM230400 16003KT 4SM BR OVC008=



000
FTUS46 KEKA 221300 AAA
TAFCEC
TAF AMD
KCEC 221301Z 2213/2312 12003KT P6SM SCT002 OVC015
     FM221800 30007KT 6SM BR BKN020
     FM222100 32012KT P6SM SCT006
     FM230000 33014G22KT P6SM SKC
     FM230400 35008KT P6SM SCT002=



000
FTUS46 KEKA 221100
TAFACV
TAF
KACV 221140Z 2212/2312 00000KT P6SM BKN011 OVC017
     FM221400 00000KT 3SM BR SCT004 OVC007
     FM221800 30010KT 6SM BR BKN007
     FM222300 32012KT P6SM SCT007
     FM230400 16003KT 4SM BR OVC008=



000
FTUS46 KEKA 221100
TAFCEC
TAF
KCEC 221140Z 2212/2312 00000KT 5SM BR OVC002
     FM221800 30007KT 6SM BR BKN006
     FM222100 32012KT P6SM SCT006
     FM230000 33014G22KT P6SM SKC
     FM230400 35008KT P6SM SCT002=



000
FTUS46 KEKA 221100
TAFUKI
TAF
KUKI 221140Z 2212/2312 00000KT P6SM SKC
     FM222100 31009KT P6SM SKC
     FM230400 00000KT P6SM SKC=



000
FTUS46 KEKA 220700 AAA
TAFACV
TAF AMD
KACV 220704Z 2207/2306 VRB04KT P6SM SCT012
      TEMPO 2209/2211 BKN012
     FM221100 VRB03KT P6SM SCT007 BKN012
     FM221400 00000KT 3SM BR SCT004 OVC007
     FM221800 30010KT 6SM BR BKN007
     FM222300 32012KT P6SM SCT007=



000
FTUS46 KEKA 220700 AAA
TAFCEC
TAF AMD
KCEC 220704Z 2207/2306 24005KT P6SM SCT012
     FM220900 20004KT P6SM SCT006 BKN012
     FM221000 VRB03KT 5SM BR OVC006
     FM221200 VRB03KT 2SM BR OVC004
     FM221800 30007KT 6SM BR BKN006
     FM222100 32012KT P6SM SCT006
     FM230000 33014G22KT P6SM SKC=



000
FTUS46 KEKA 220500
TAFCEC
TAF
KCEC 220534Z 2206/2306 24005KT P6SM SCT012
     FM220700 20004KT P6SM SCT006 BKN012
     FM221000 VRB03KT 5SM BR OVC006
     FM221200 VRB03KT 2SM BR OVC004
     FM221800 30007KT 6SM BR BKN006
     FM222100 32012KT P6SM SCT006
     FM230000 33014G22KT P6SM SKC=



000
FTUS46 KEKA 220500
TAFUKI
TAF
KUKI 220534Z 2206/2306 00000KT P6SM SKC
     FM222100 31009KT P6SM SKC
     FM230400 00000KT P6SM SKC=



000
FTUS46 KEKA 220500
TAFACV
TAF
KACV 220534Z 2206/2306 VRB04KT P6SM SCT012
      TEMPO 2207/2208 BKN012
     FM220800 VRB03KT P6SM SCT007 BKN012
     FM221000 00000KT 3SM BR SCT004 OVC007
     FM221800 30010KT 6SM BR BKN007
     FM222300 32012KT P6SM SCT007=



000
FTUS46 KEKA 220400 AAA
TAFACV
TAF AMD
KACV 220428Z 2204/2224 34004KT P6SM SCT007
      TEMPO 2206/2207 BKN007
     FM220700 VRB03KT 5SM BR SCT004 OVC007
     FM221000 VRB03KT 3SM BR OVC004
     FM221800 30010KT 6SM BR BKN007
     FM222300 32012KT P6SM SCT007=



000
FTUS46 KEKA 212300 CCA
TAFUKI
TAF COR
KUKI 212340Z 2200/2224 26008G16KT P6SM FEW250
     FM220200 VRB04KT P6SM SKC
     FM220800 00000KT P6SM SKC
     FM221600 VRB03KT P6SM SKC
     FM222100 32009KT P6SM SKC=



000
FTUS46 KEKA 212300
TAFCEC
TAF
KCEC 212339Z 2200/2224 32009KT P6SM SKC
     FM220500 30006KT 5SM BR OVC006
     FM220900 VRB03KT 2SM BR OVC004
     FM221800 30007KT 6SM BR BKN006
     FM222100 32014KT P6SM SCT006=



000
FTUS46 KEKA 212300
TAFUKI
TAF
KUKI 212339Z 2200/2224 29008G16KT P6SM FEW250
     FM220200 VRB04KT P6SM SKC
     FM220800 00000KT P6SM SKC
     FM221600 VRB03KT P6SM SKC
     FM222100 32009KT P6SM SKC=



000
FTUS46 KEKA 212300
TAFACV
TAF
KACV 212339Z 2200/2224 31010KT P6SM SKC
     FM220300 34004KT P6SM SCT007
      TEMPO 2204/2206 BKN007
     FM220600 VRB03KT 5SM BR SCT004 OVC007
     FM221000 VRB03KT 3SM BR OVC004
     FM221800 30010KT 6SM BR BKN007
     FM222300 32012KT P6SM SCT007=



000
FTUS46 KEKA 212100 AAA
TAFCEC
TAF AMD
KCEC 212121Z 2121/2218 30008KT P6SM FEW250
     FM220000 30006KT 5SM BR OVC005
     FM220900 VRB03KT 2SM BR OVC004=



000
FTUS46 KEKA 211900 CCA
TAFACV
TAF COR
KACV 211901Z 2118/2218 30006KT P6SM OVC005
     FM212100 33010KT P6SM SKC
     FM220700 VRB03KT 5SM BR OVC006
     FM221000 00000KT 3SM BR OVC004=



000
FTUS46 KEKA 211700
TAFUKI
TAF
KUKI 211725Z 2118/2218 VRB04KT P6SM FEW250
     FM212000 VRB05KT P6SM FEW250
     FM212300 29008KT P6SM FEW250
     FM220200 VRB04KT P6SM SKC
     FM220800 00000KT P6SM SKC=



000
FTUS46 KEKA 211700
TAFCEC
TAF
KCEC 211725Z 2118/2218 VRB04KT P6SM SCT250
     FM211900 30008KT P6SM SCT007
     FM212300 30006KT 5SM BR OVC005
     FM220900 VRB03KT 2SM BR OVC004=



000
FTUS46 KEKA 211700
TAFACV
TAF
KACV 211725Z 2118/2218 VRB06KT P6SM OVC006
     FM211900 31006KT P6SM SCT009
     FM212100 33010KT P6SM SKC
     FM220700 VRB03KT 5SM BR OVC006
     FM221000 00000KT 3SM BR OVC004=



000
FTUS46 KEKA 211600 AAA
TAFCEC
TAF AMD
KCEC 211623Z 2116/2212 30004KT 6SM BR SCT004
     FM211800 33008KT P6SM SCT007
     FM220900 VRB03KT 6SM BR BKN005=



000
FTUS46 KEKA 211400 AAA
TAFUKI
TAF AMD
KUKI 211410Z 2114/2212 VRB03KT P6SM FEW250
     FM211900 VRB05KT P6SM FEW250
     FM212300 29009KT P6SM FEW250
     FM220200 01004KT P6SM SKC=



000
FTUS46 KEKA 211100
TAFUKI
TAF
KUKI 211138Z 2112/2212 16005KT P6SM BKN012
     FM211800 13005KT P6SM FEW250
     FM212300 29009KT P6SM FEW250
     FM220200 01004KT P6SM SKC=



000
FTUS46 KEKA 211100
TAFCEC
TAF
KCEC 211138Z 2112/2212 09003KT 6SM BR SCT002
      TEMPO 2113/2115 1/2SM FG VV002
     FM211500 VRB06KT 1SM BR BKN002
     FM211700 33011KT P6SM SCT006
     FM220900 VRB03KT 6SM BR BKN005=



000
FTUS46 KEKA 211100
TAFACV
TAF
KACV 211138Z 2112/2212 09003KT 6SM BR BKN004
     FM211700 30005KT 3SM BR SCT004
     FM212000 32012KT P6SM SKC
     FM220700 34007KT 6SM BR BKN008=



000
FTUS46 KEKA 211000 AAB
TAFACV
TAF AMD
KACV 211005Z 2110/2206 09003KT 6SM BR SCT011
     FM211300 00000KT 1/2SM FG VV002
     FM211600 30005KT 3SM BR BKN004
     FM211800 32012KT P6SM SCT006
     FM220500 34007KT 6SM BR BKN005=



000
FTUS46 KEKA 211000 AAB
TAFCEC
TAF AMD
KCEC 211003Z 2110/2206 09003KT P6SM SCT006
     FM211300 VRB04KT 1/2SM FG VV002
     FM211600 VRB06KT 3SM BR BKN004
     FM211800 33011KT P6SM SCT006
     FM220400 33007KT 6SM BR BKN005=



000
FTUS46 KEKA 210800 AAA
TAFACV
TAF AMD
KACV 210818Z 2108/2206 14004KT 4SM BR BKN011
     FM211100 VRB03KT 3SM BR OVC007
     FM211200 00000KT 1/2SM FG VV002
     FM211600 30005KT 3SM BR BKN004
     FM211800 32012KT P6SM SCT006
     FM220500 34007KT 6SM BR BKN005=



000
FTUS46 KEKA 210800 AAA
TAFCEC
TAF AMD
KCEC 210817Z 2108/2206 15009KT P6SM SCT006
     FM211100 15004KT 3SM BR OVC004
     FM211300 VRB04KT 1/2SM FG VV002
     FM211600 VRB06KT 3SM BR BKN004
     FM211800 33011KT P6SM SCT006
     FM220400 33007KT 6SM BR BKN005=



000
FTUS46 KEKA 210500
TAFACV
TAF
KACV 210540Z 2106/2206 16005KT P6SM FEW007
     FM210700 14004KT 4SM BR BKN007
     FM210900 VRB03KT 2SM BR OVC004
     FM211200 00000KT 1/2SM FG VV002
     FM211600 30005KT 3SM BR BKN004
     FM211800 32012KT P6SM SCT006
     FM220500 34007KT 6SM BR BKN005=



000
FTUS46 KEKA 210500
TAFUKI
TAF
KUKI 210540Z 2106/2206 16006KT P6SM SKC
     FM211200 17003KT P6SM BKN012
     FM211800 13005KT P6SM FEW250
     FM212300 30009KT P6SM FEW250
     FM220200 01004KT P6SM SKC=



000
FTUS46 KEKA 210500
TAFCEC
TAF
KCEC 210540Z 2106/2206 15009KT P6SM SCT006
     FM210900 15004KT 3SM BR OVC004
     FM211200 VRB04KT 1/2SM FG VV002
     FM211600 VRB06KT 3SM BR BKN004
     FM211800 33011KT P6SM SCT006
     FM220400 33007KT 6SM BR BKN005=



000
FTUS46 KEKA 210300 AAA
TAFACV
TAF AMD
KACV 210313Z 2103/2124 30009KT P6SM FEW007
     FM210600 VRB05KT 4SM BR BKN007
     FM210800 VRB03KT 2SM BR OVC004
     FM211200 00000KT 1/2SM FG VV002
     FM211600 30005KT 3SM BR BKN004
     FM211900 32012KT P6SM SCT006=



000
FTUS46 KEKA 210200 AAA
TAFCEC
TAF AMD
KCEC 210211Z 2102/2124 33012G20KT P6SM SKC
     FM210400 33006KT P6SM SCT006
     FM210600 VRB05KT 3SM BR OVC004
     FM210800 17004KT 1SM BR OVC002
     FM211000 VRB05KT 1/2SM FG VV002
     FM211600 VRB06KT 3SM BR BKN004
     FM211900 33011KT P6SM SCT006=



000
FTUS46 KEKA 202300
TAFACV
TAF
KACV 202340Z 2100/2124 30009KT P6SM FEW007
     FM210300 32005KT 4SM BR BKN007
     FM210500 VRB03KT 2SM BR OVC004
     FM210800 VRB03KT 1SM BR OVC003
     FM211200 00000KT 1/2SM FG VV002
     FM211600 30005KT 3SM BR BKN004
     FM211900 32012KT P6SM SCT006=



000
FTUS46 KEKA 202300
TAFCEC
TAF
KCEC 202340Z 2100/2124 33012KT P6SM SKC
     FM210200 33006KT P6SM SCT006
     FM210400 VRB05KT 3SM BR OVC004
     FM210700 17004KT 1SM BR OVC002
     FM211000 VRB05KT 1/2SM FG VV002
     FM211600 VRB06KT 3SM BR BKN004
     FM211900 33011KT P6SM SCT006=



000
FTUS46 KEKA 202300
TAFUKI
TAF
KUKI 202340Z 2100/2124 13008KT P6SM SKC
     FM210600 VRB03KT P6SM SKC
     FM211200 VRB03KT P6SM SCT012
     FM211800 13007KT P6SM FEW250=



000
FTUS46 KEKA 202200 AAC
TAFCEC
TAF AMD
KCEC 202231Z 2023/2118 32008KT P6SM FEW250
     FM210200 30006KT P6SM SCT007
     FM210400 VRB05KT 3SM BR OVC004
     FM210700 VRB03KT 1SM BR OVC002=



000
FTUS46 KEKA 202100 AAB
TAFACV
TAF AMD
KACV 202106Z 2021/2118 VRB06KT P6SM FEW250
     FM202200 30006KT P6SM FEW250
     FM210100 30004KT 3SM BR OVC007
     FM210400 VRB03KT 2SM BR OVC004
     FM210800 00000KT 1SM BR OVC003=



000
FTUS46 KEKA 202000 AAB
TAFCEC
TAF AMD
KCEC 202059Z 2021/2118 32006KT P6SM SCT006
     FM202300 30006KT P6SM SCT007
     FM210300 15006KT 3SM BR OVC004
     FM210700 VRB03KT 1SM BR OVC002=



000
FTUS46 KEKA 202000 AAA
TAFCEC
TAF AMD
KCEC 202011Z 2020/2118 18008KT 4SM BR OVC004
     FM202100 20008KT P6SM OVC007
     FM202300 30012KT P6SM SCT007
     FM210300 15006KT 3SM BR OVC004
     FM210700 VRB03KT 1SM BR OVC002=



000
FTUS46 KEKA 201900 AAA
TAFACV
TAF AMD
KACV 201944Z 2020/2118 VRB06KT P6SM SCT003
     FM202200 28006KT P6SM SCT006
     FM210100 18004KT 3SM BR OVC007
     FM210400 VRB03KT 2SM BR OVC004
     FM210800 00000KT 1SM BR OVC003=



000
FTUS46 KEKA 201800 AAA
TAFUKI
TAF AMD
KUKI 201808Z 2018/2118 VRB06KT P6SM SKC
     FM202200 13008KT P6SM SCT250
     FM210600 00000KT P6SM SCT250=



000
FTUS46 KEKA 201700
TAFACV
TAF
KACV 201733Z 2018/2118 VRB06KT 2SM BR OVC002
     FM201900 VRB06KT 3SM BR OVC003
     FM202000 30006KT P6SM BKN006
     FM202200 32005KT P6SM SCT006
     FM210100 18004KT 3SM BR OVC007
     FM210400 VRB03KT 2SM BR OVC004
     FM210800 00000KT 1SM BR OVC003=



000
FTUS46 KEKA 201700
TAFCEC
TAF
KCEC 201733Z 2018/2118 18008KT P6SM OVC004
     FM202000 20008KT P6SM OVC007
     FM202300 30012KT P6SM SCT007
     FM210300 15006KT 3SM BR OVC004
     FM210700 VRB03KT 1SM BR OVC002=



000
FTUS46 KEKA 201700
TAFUKI
TAF
KUKI 201733Z 2018/2118 VRB05KT P6SM OVC012
     FM201900 VRB06KT P6SM SKC
     FM202200 13008KT P6SM SCT250
     FM210600 00000KT P6SM SCT250=



000
FTUS46 KEKA 201600 AAB
TAFUKI
TAF AMD
KUKI 201630Z 2017/2112 VRB04KT P6SM OVC012
     FM201800 16004KT P6SM SKC
     FM202100 29008KT P6SM SCT250=



000
FTUS46 KEKA 201600 CCA
TAFCEC
TAF COR
KCEC 201619Z 2015/2112 18005KT 1SM BR OVC002
     FM201700 18008KT 2SM BR OVC004
     FM201800 30008KT P6SM BKN007
     FM202300 30012KT P6SM SCT007
     FM210300 15006KT 4SM BR OVC004=



000
FTUS46 KEKA 201600 CCB
TAFACV
TAF COR
KACV 201612Z 2015/2112 VRB06KT 1SM BR VV002
     FM201700 VRB06KT 3SM BR OVC003
     FM201800 32006KT P6SM BKN006
     FM202200 32005KT P6SM SCT006
     FM210100 18004KT 3SM BR OVC007=



000
FTUS46 KEKA 201500 AAA
TAFUKI
TAF AMD
KUKI 201501Z 2015/2112 VRB04KT P6SM OVC012
     FM201630 16004KT P6SM SKC
     FM202100 29008KT P6SM SCT250=



000
FTUS46 KEKA 201400 CCA
TAFACV
TAF COR
KACV 201459Z 2015/2112 VRB06KT 6SM BR OVC003
     FM201600 VRB06KT P6SM BKN006
     FM201800 32006KT P6SM BKN006
     FM202200 32005KT P6SM SCT006
     FM210100 18004KT 3SM BR OVC007=



000
FTUS46 KEKA 201400 AAA
TAFACV
TAF AMD
KACV 201445Z 2015/2112 VRB03KT 2SM BR OVC003
     FM201600 VRB05KT 4SM BR BKN006
     FM201800 32006KT P6SM BKN006
     FM202200 32005KT P6SM SCT006
     FM210100 18004KT 3SM BR OVC007=



000
FTUS46 KEKA 201400 AAA
TAFCEC
TAF AMD
KCEC 201443Z 2015/2112 15005KT 1SM BR OVC002
     FM201600 18005KT 2SM BR OVC004
     FM201800 30008KT P6SM BKN007
     FM202300 30012KT P6SM SCT007
     FM210300 15006KT 4SM BR OVC004=



000
FTUS46 KEKA 201100
TAFACV
TAF
KACV 201140Z 2012/2112 23003KT 1/2SM FG OVC003
     FM201600 VRB05KT 4SM BR BKN006
     FM201800 32006KT P6SM BKN006
     FM202200 32005KT P6SM SCT006
     FM210100 18004KT 3SM BR OVC007=



000
FTUS46 KEKA 201100
TAFCEC
TAF
KCEC 201140Z 2012/2112 15005KT 1/2SM FG VV002
     FM201600 18005KT 2SM BR OVC004
     FM201800 30008KT P6SM BKN007
     FM202300 30012KT P6SM SCT007
     FM210300 15006KT 4SM BR OVC004=



000
FTUS46 KEKA 201100
TAFUKI
TAF
KUKI 201140Z 2012/2112 00000KT P6SM OVC010
     FM201630 16004KT P6SM SKC
     FM202100 29008KT P6SM SCT250=



000
FTUS46 KEKA 201000 CCA
TAFACV
TAF COR
KACV 201024Z 2010/2106 00000KT P6SM OVC008
      TEMPO 2010/2012 1SM BR OVC004
     FM201600 VRB05KT 5SM BR BKN006
     FM201800 32006KT P6SM BKN006=



000
FTUS46 KEKA 201000 AAA
TAFACV
TAF AMD
KACV 201022Z 2010/2106 00000KT P6SM OVC008
      TEMPO 2010/2012 1SM BR OVC001
     FM201600 VRB05KT 5SM BR BKN003
     FM201800 32006KT P6SM BKN006=



000
FTUS46 KEKA 201000 AAA
TAFUKI
TAF AMD
KUKI 201021Z 2010/2106 00000KT P6SM BKN008
     FM201630 16004KT P6SM SKC
     FM202100 29008KT P6SM SCT250=



    US Dept of Commerce
    National Oceanic and Atmospheric Administration
    National Weather Service
    1325 East West Highway
    Silver Spring, MD 20910
    Page Author: NWS Internet Services Team
Disclaimer
Information Quality
Credits
Glossary
Privacy Policy
Freedom of Information Act (FOIA)
About Us
Career Opportunities